Time;durP1;ratioP1;P1;durP2;ratioP2;P2;SDS_P1;SDS_P2;PMS_P1;PMS_P2;Temp;Humidity;BMP_temperature;BMP_pressure;BME280_temperature;BME280_humidity;BME280_pressure;Samples;Min_cycle;Max_cycle;Signal;HPM_P1;HPM_P2
2023/09/14 01:42:38;;;;;;;9.98;9.68;;;16.40;99.90;;;;;;6160988;22;20329;-80
2023/09/14 01:45:07;;;;;;;10.15;9.85;;;16.50;99.90;;;;;;6201273;23;20198;-80
2023/09/14 01:47:34;;;;;;;10.20;9.90;;;16.40;99.90;;;;;;6202671;23;20212;-80
2023/09/14 01:50:01;;;;;;;10.13;9.82;;;16.40;99.90;;;;;;6203400;23;20263;-80
2023/09/14 01:52:28;;;;;;;10.30;10.00;;;16.30;99.90;;;;;;6204041;23;20243;-80
2023/09/14 01:54:55;;;;;;;10.20;9.90;;;16.30;99.90;;;;;;6209496;23;20196;-80
2023/09/14 01:57:23;;;;;;;10.10;9.80;;;16.30;99.90;;;;;;6209929;23;20207;-80
2023/09/14 01:59:52;;;;;;;10.20;9.90;;;16.30;99.90;;;;;;6210322;23;20199;-80
2023/09/14 02:02:19;;;;;;;10.02;9.73;;;16.30;99.90;;;;;;6210192;23;20202;-80
2023/09/14 02:04:48;;;;;;;10.40;10.10;;;16.20;99.90;;;;;;6210144;23;20203;-80
2023/09/14 02:07:15;;;;;;;10.10;9.80;;;16.30;99.90;;;;;;6210522;23;20216;-80
2023/09/14 02:09:42;;;;;;;10.25;9.95;;;16.30;99.90;;;;;;6210909;23;20223;-80
2023/09/14 02:12:09;;;;;;;10.30;10.00;;;16.30;99.90;;;;;;6209888;23;20203;-80
2023/09/14 02:14:36;;;;;;;10.20;9.90;;;16.30;99.90;;;;;;6209479;23;20211;-80
2023/09/14 02:17:05;;;;;;;9.95;9.65;;;16.30;99.90;;;;;;6208495;23;20208;-80
2023/09/14 02:19:32;;;;;;;10.30;10.00;;;16.30;99.90;;;;;;6208989;23;20219;-80
2023/09/14 02:21:59;;;;;;;10.35;10.05;;;16.20;99.90;;;;;;6208983;23;20203;-80
2023/09/14 02:24:26;;;;;;;10.25;9.95;;;16.00;99.90;;;;;;6210026;23;20219;-80
2023/09/14 02:26:54;;;;;;;10.10;9.80;;;16.00;99.90;;;;;;6208757;23;20219;-80
2023/09/14 02:29:21;;;;;;;10.30;10.00;;;15.80;99.90;;;;;;6208644;23;20212;-80
2023/09/14 02:31:48;;;;;;;10.13;9.82;;;15.80;99.90;;;;;;6206634;23;20240;-80
2023/09/14 02:34:16;;;;;;;10.05;9.75;;;15.90;99.90;;;;;;6199326;23;20215;-79
2023/09/14 02:36:43;;;;;;;10.07;9.77;;;15.90;99.90;;;;;;6200090;23;20199;-80
2023/09/14 02:39:10;;;;;;;10.10;9.80;;;15.90;99.90;;;;;;6199001;23;20234;-80
2023/09/14 02:41:37;;;;;;;10.05;9.75;;;15.80;99.90;;;;;;6199430;23;20308;-80
2023/09/14 02:44:05;;;;;;;10.07;9.77;;;15.90;99.90;;;;;;6199482;23;20274;-80
2023/09/14 02:46:32;;;;;;;9.98;9.68;;;15.80;99.90;;;;;;6200109;23;20200;-81
2023/09/14 02:48:59;;;;;;;9.80;9.50;;;15.80;99.90;;;;;;6200140;23;20311;-80
2023/09/14 02:51:27;;;;;;;9.65;9.35;;;15.80;99.90;;;;;;6200458;23;20228;-80
2023/09/14 02:53:54;;;;;;;9.60;9.30;;;15.80;99.90;;;;;;6199371;23;20208;-80
2023/09/14 02:56:22;;;;;;;10.00;9.70;;;15.70;99.90;;;;;;6200067;23;20191;-80
2023/09/14 02:58:51;;;;;;;9.98;9.68;;;15.70;99.90;;;;;;6200510;23;20215;-80
2023/09/14 03:01:20;;;;;;;9.80;9.50;;;15.70;99.90;;;;;;6200879;23;20278;-80
2023/09/14 03:03:48;;;;;;;10.00;9.70;;;15.80;99.90;;;;;;6200770;23;20210;-80
2023/09/14 03:06:15;;;;;;;9.88;9.57;;;15.80;99.90;;;;;;6199699;23;20287;-80
2023/09/14 03:08:43;;;;;;;9.75;9.45;;;15.70;99.90;;;;;;6199356;23;20283;-80
2023/09/14 03:11:10;;;;;;;9.63;9.32;;;15.70;99.90;;;;;;6200696;23;20198;-80
2023/09/14 03:13:37;;;;;;;9.60;9.30;;;15.80;99.90;;;;;;6199836;23;20212;-80
2023/09/14 03:16:05;;;;;;;9.80;9.50;;;15.80;99.90;;;;;;6199053;23;20199;-80
2023/09/14 03:18:32;;;;;;;9.80;9.50;;;15.80;99.90;;;;;;6201131;23;20227;-80
2023/09/14 03:20:59;;;;;;;9.80;9.50;;;15.80;99.90;;;;;;6200404;23;20199;-80
2023/09/14 03:23:26;;;;;;;9.57;9.27;;;15.80;99.90;;;;;;6200534;23;20223;-80
2023/09/14 03:25:57;;;;;;;9.68;9.38;;;15.80;99.90;;;;;;6198955;23;20251;-80
2023/09/14 03:28:24;;;;;;;9.50;9.20;;;15.80;99.90;;;;;;6200568;23;20203;-80
2023/09/14 03:30:51;;;;;;;9.80;9.50;;;15.70;99.90;;;;;;6199856;23;20213;-80
2023/09/14 03:33:18;;;;;;;9.70;9.40;;;15.60;99.90;;;;;;6199637;23;20210;-80
2023/09/14 03:35:45;;;;;;;9.80;9.50;;;15.50;99.90;;;;;;6199661;23;20247;-80
2023/09/14 03:38:12;;;;;;;9.48;9.18;;;15.50;99.90;;;;;;6201383;23;20259;-80
2023/09/14 03:40:39;;;;;;;9.70;9.40;;;15.50;99.90;;;;;;6204107;23;20207;-80
2023/09/14 03:43:08;;;;;;;9.73;9.43;;;15.60;99.90;;;;;;6203330;23;20231;-79
2023/09/14 03:45:36;;;;;;;9.38;9.07;;;15.60;99.90;;;;;;6202395;23;20251;-80
2023/09/14 03:48:04;;;;;;;9.50;9.20;;;15.70;99.90;;;;;;6202496;23;20223;-80
2023/09/14 03:50:31;;;;;;;9.50;9.20;;;15.70;99.90;;;;;;6202118;23;20239;-80
2023/09/14 03:52:58;;;;;;;9.15;8.85;;;15.70;99.90;;;;;;6201668;23;20235;-80
2023/09/14 03:55:25;;;;;;;9.30;9.00;;;15.80;99.90;;;;;;6203372;23;20218;-80
2023/09/14 03:57:52;;;;;;;9.48;9.18;;;15.80;99.90;;;;;;6202494;23;20231;-80
2023/09/14 04:00:21;;;;;;;9.30;9.00;;;15.80;99.90;;;;;;6201279;23;20283;-80
2023/09/14 04:02:48;;;;;;;9.40;9.10;;;15.80;99.90;;;;;;6201045;23;20242;-80
2023/09/14 04:05:17;;;;;;;9.50;9.20;;;15.70;99.90;;;;;;6201342;23;20227;-80
2023/09/14 04:07:45;;;;;;;9.77;9.48;;;15.70;99.90;;;;;;6201978;23;20278;-80
2023/09/14 04:10:13;;;;;;;9.90;9.60;;;15.70;99.90;;;;;;6202079;23;20208;-80
2023/09/14 04:12:41;;;;;;;9.88;9.57;;;15.70;99.90;;;;;;6200552;23;20227;-80
2023/09/14 04:15:09;;;;;;;9.77;9.48;;;15.70;99.90;;;;;;6201450;23;20290;-80
2023/09/14 04:17:38;;;;;;;10.15;9.85;;;15.70;99.90;;;;;;6202997;23;20196;-80
2023/09/14 04:20:09;;;;;;;10.10;9.80;;;15.80;99.90;;;;;;6202154;23;20219;-80
2023/09/14 04:22:36;;;;;;;10.20;9.90;;;15.80;99.90;;;;;;6201662;23;21098;-80
2023/09/14 04:25:04;;;;;;;9.90;9.60;;;15.70;99.90;;;;;;6202511;23;20211;-80
2023/09/14 04:27:31;;;;;;;10.10;9.80;;;15.70;99.90;;;;;;6201781;23;20282;-80
2023/09/14 04:29:58;;;;;;;10.35;10.05;;;15.70;99.90;;;;;;6201898;23;20504;-80
2023/09/14 04:32:25;;;;;;;10.05;9.75;;;15.70;99.90;;;;;;6201259;23;20298;-80
2023/09/14 04:34:53;;;;;;;10.20;9.90;;;15.70;99.90;;;;;;6201614;23;20235;-81
2023/09/14 04:37:20;;;;;;;10.38;10.07;;;15.70;99.90;;;;;;6200531;23;20246;-81
2023/09/14 04:39:47;;;;;;;10.60;10.30;;;15.60;99.90;;;;;;6201347;23;20255;-80
2023/09/14 04:42:15;;;;;;;10.50;10.20;;;15.60;99.90;;;;;;6199902;23;20246;-80
2023/09/14 04:44:42;;;;;;;10.80;10.50;;;15.60;99.90;;;;;;6201743;23;20224;-80
2023/09/14 04:47:11;;;;;;;10.90;10.60;;;15.60;99.90;;;;;;6200574;23;20223;-80
2023/09/14 04:49:38;;;;;;;11.43;11.05;;;15.60;99.90;;;;;;6201003;23;20655;-78
2023/09/14 04:52:07;;;;;;;10.90;10.60;;;15.60;99.90;;;;;;6201488;23;20215;-78
2023/09/14 04:54:34;;;;;;;10.90;10.60;;;15.70;99.90;;;;;;6201838;23;20267;-79
2023/09/14 04:57:01;;;;;;;11.10;10.80;;;15.60;99.90;;;;;;6204826;23;20215;-78
2023/09/14 04:59:28;;;;;;;11.10;10.80;;;15.50;99.90;;;;;;6202280;23;20264;-78
2023/09/14 05:01:55;;;;;;;11.00;10.70;;;15.50;99.90;;;;;;6200592;23;20287;-78
2023/09/14 05:04:22;;;;;;;10.82;10.52;;;15.50;99.90;;;;;;6202084;23;20298;-78
2023/09/14 05:06:49;;;;;;;10.93;10.63;;;15.50;99.90;;;;;;6201666;23;20226;-78
2023/09/14 05:09:17;;;;;;;11.07;10.77;;;15.50;99.90;;;;;;6201547;23;20211;-78
2023/09/14 05:11:44;;;;;;;10.82;10.52;;;15.50;99.90;;;;;;6201830;23;20235;-77
2023/09/14 05:14:11;;;;;;;10.90;10.60;;;15.60;99.90;;;;;;6201421;23;20611;-78
2023/09/14 05:16:38;;;;;;;10.82;10.52;;;15.60;99.90;;;;;;6201976;23;20227;-77
2023/09/14 05:19:05;;;;;;;11.02;10.73;;;15.60;99.90;;;;;;6202262;23;20228;-78
2023/09/14 05:21:33;;;;;;;10.63;10.32;;;15.60;99.90;;;;;;6203899;23;20195;-77
2023/09/14 05:23:59;;;;;;;10.80;10.50;;;15.50;99.90;;;;;;6203846;23;20266;-78
2023/09/14 05:26:28;;;;;;;10.35;10.05;;;15.50;99.90;;;;;;6204112;23;20274;-77
2023/09/14 05:28:55;;;;;;;10.23;9.93;;;15.40;99.90;;;;;;6204355;23;20192;-79
2023/09/14 05:31:22;;;;;;;10.32;10.02;;;15.40;99.90;;;;;;6202148;23;20199;-78
2023/09/14 05:33:49;;;;;;;10.45;10.15;;;15.30;99.90;;;;;;6201602;23;20287;-78
2023/09/14 05:36:16;;;;;;;10.48;10.18;;;15.30;99.90;;;;;;6200848;23;20208;-78
2023/09/14 05:38:44;;;;;;;10.43;10.13;;;15.30;99.90;;;;;;6203533;23;20200;-77
2023/09/14 05:41:11;;;;;;;10.40;10.10;;;15.30;99.90;;;;;;6200676;23;20207;-78
2023/09/14 05:43:40;;;;;;;10.50;10.20;;;15.40;99.90;;;;;;6200382;23;20247;-79
2023/09/14 05:46:07;;;;;;;10.43;10.13;;;15.40;99.90;;;;;;6201147;23;20195;-78
2023/09/14 05:48:34;;;;;;;10.43;10.13;;;15.40;99.90;;;;;;6201566;23;20252;-78
2023/09/14 05:51:03;;;;;;;10.27;9.98;;;15.50;99.90;;;;;;6201149;23;20199;-78
2023/09/14 05:53:30;;;;;;;10.50;10.20;;;15.40;99.90;;;;;;6200890;23;20271;-78
2023/09/14 05:55:57;;;;;;;10.60;10.30;;;15.40;99.90;;;;;;6201625;23;20213;-78
2023/09/14 05:58:24;;;;;;;10.27;9.98;;;15.40;99.90;;;;;;6201216;23;20230;-78
2023/09/14 06:00:53;;;;;;;10.40;10.10;;;15.40;99.90;;;;;;6200158;23;20251;-78
2023/09/14 06:03:20;;;;;;;10.30;10.00;;;15.40;99.90;;;;;;6200586;23;20262;-80
2023/09/14 06:05:48;;;;;;;10.38;10.07;;;15.40;99.90;;;;;;6201343;23;20195;-78
2023/09/14 06:08:15;;;;;;;10.38;10.07;;;15.50;99.90;;;;;;6200138;23;20214;-78
2023/09/14 06:10:42;;;;;;;10.57;10.27;;;15.50;99.90;;;;;;6201377;23;20215;-78
2023/09/14 06:13:09;;;;;;;10.55;10.25;;;15.50;99.90;;;;;;6203657;23;20255;-78
2023/09/14 06:15:36;;;;;;;10.65;10.35;;;15.50;99.90;;;;;;6215058;23;20215;-79
2023/09/14 06:18:04;;;;;;;10.60;10.30;;;15.60;99.90;;;;;;6214415;23;20223;-78
2023/09/14 06:20:31;;;;;;;10.73;10.43;;;15.70;99.90;;;;;;6216015;23;20203;-78
2023/09/14 06:22:59;;;;;;;10.77;10.48;;;15.80;99.90;;;;;;6215998;23;20203;-79
2023/09/14 06:25:26;;;;;;;10.60;10.30;;;15.70;99.90;;;;;;6215668;23;20211;-78
2023/09/14 06:27:53;;;;;;;10.70;10.40;;;15.60;99.90;;;;;;6211995;23;20180;-78
2023/09/14 06:30:20;;;;;;;10.80;10.50;;;15.50;99.90;;;;;;6213103;23;20199;-77
2023/09/14 06:32:47;;;;;;;10.88;10.57;;;15.50;99.90;;;;;;6215703;23;20203;-78
2023/09/14 06:35:16;;;;;;;10.73;10.43;;;15.50;99.90;;;;;;6215725;23;20207;-77
2023/09/14 06:37:43;;;;;;;10.68;10.38;;;15.60;99.90;;;;;;6208896;23;20198;-78
2023/09/14 06:40:11;;;;;;;10.60;10.30;;;15.50;99.90;;;;;;6208693;23;20292;-78
2023/09/14 06:42:38;;;;;;;10.80;10.50;;;15.50;99.90;;;;;;6207861;23;20211;-77
2023/09/14 06:45:08;;;;;;;10.60;10.30;;;15.40;99.90;;;;;;6202868;23;20202;-78
2023/09/14 06:47:35;;;;;;;10.70;10.40;;;15.40;99.90;;;;;;6201561;23;20192;-78
2023/09/14 06:50:02;;;;;;;10.70;10.40;;;15.50;99.90;;;;;;6203006;23;20230;-79
2023/09/14 06:52:31;;;;;;;10.90;10.60;;;15.50;99.90;;;;;;6202371;23;20242;-79
2023/09/14 06:54:58;;;;;;;11.00;10.70;;;15.50;99.90;;;;;;6207623;23;20212;-78
2023/09/14 06:57:25;;;;;;;10.68;10.38;;;15.50;99.90;;;;;;6217163;23;20184;-78
2023/09/14 06:59:52;;;;;;;10.27;9.98;;;15.40;99.90;;;;;;6204125;23;20195;-77
2023/09/14 07:02:19;;;;;;;10.20;9.90;;;15.50;99.90;;;;;;6195447;23;20207;-77
2023/09/14 07:04:46;;;;;;;10.55;10.25;;;15.60;99.90;;;;;;6200092;23;20263;-80
2023/09/14 07:07:13;;;;;;;10.50;10.20;;;15.60;99.90;;;;;;6199001;23;20216;-78
2023/09/14 07:09:41;;;;;;;10.90;10.60;;;15.60;99.90;;;;;;6201209;23;20215;-79
2023/09/14 07:12:08;;;;;;;10.55;10.25;;;15.60;99.90;;;;;;6201478;23;20682;-78
2023/09/14 07:14:35;;;;;;;10.52;10.23;;;15.60;99.90;;;;;;6202761;23;20199;-79
2023/09/14 07:17:03;;;;;;;10.70;10.40;;;15.80;99.90;;;;;;6203141;23;20195;-78
2023/09/14 07:19:30;;;;;;;10.60;10.30;;;15.80;99.90;;;;;;6202847;23;20213;-78
2023/09/14 07:21:57;;;;;;;10.68;10.38;;;16.00;99.90;;;;;;6203172;23;20671;-78
2023/09/14 07:24:26;;;;;;;10.70;10.40;;;16.00;99.90;;;;;;6203169;23;20219;-78
2023/09/14 07:26:55;;;;;;;10.68;10.38;;;16.00;99.90;;;;;;6202941;23;20203;-78
2023/09/14 07:29:22;;;;;;;10.50;10.20;;;16.00;99.90;;;;;;6202852;23;20203;-77
2023/09/14 07:31:50;;;;;;;10.65;10.35;;;16.00;99.90;;;;;;6202138;23;20286;-79
2023/09/14 07:34:17;;;;;;;10.43;10.13;;;16.00;99.90;;;;;;6202537;23;20243;-78
2023/09/14 07:36:44;;;;;;;10.60;10.30;;;16.10;99.90;;;;;;6202031;23;20235;-78
2023/09/14 07:39:12;;;;;;;10.40;10.10;;;16.20;99.90;;;;;;6201663;23;20219;-78
2023/09/14 07:41:39;;;;;;;10.27;9.98;;;16.20;99.90;;;;;;6202724;23;20218;-77
2023/09/14 07:44:07;;;;;;;10.57;10.27;;;16.40;99.90;;;;;;6203920;23;20218;-78
2023/09/14 07:46:34;;;;;;;10.50;10.20;;;16.50;99.90;;;;;;6205834;23;20210;-78
2023/09/14 07:49:01;;;;;;;10.48;10.18;;;16.50;99.90;;;;;;6203910;23;20203;-78
2023/09/14 07:51:28;;;;;;;10.18;9.88;;;16.60;99.90;;;;;;6201921;23;20255;-78
2023/09/14 07:53:55;;;;;;;10.10;9.80;;;16.60;99.90;;;;;;6202342;23;20272;-78
2023/09/14 07:56:23;;;;;;;10.13;9.82;;;16.50;99.90;;;;;;6201725;23;20273;-78
2023/09/14 07:58:50;;;;;;;10.10;9.80;;;16.60;99.90;;;;;;6201859;23;20203;-78
2023/09/14 08:01:18;;;;;;;9.95;9.65;;;16.80;99.90;;;;;;6201745;23;20243;-78
2023/09/14 08:03:45;;;;;;;10.35;10.05;;;16.90;99.90;;;;;;6201995;23;20222;-78
2023/09/14 08:06:12;;;;;;;10.50;10.20;;;17.00;99.90;;;;;;6206063;23;20264;-78
2023/09/14 08:08:39;;;;;;;10.30;10.00;;;17.00;99.90;;;;;;6205901;23;20191;-78
2023/09/14 08:11:06;;;;;;;10.40;10.10;;;17.10;99.90;;;;;;6201454;23;20250;-78
2023/09/14 08:13:34;;;;;;;10.43;10.13;;;17.20;99.90;;;;;;6202826;23;20278;-77
2023/09/14 08:16:04;;;;;;;10.60;10.30;;;17.30;99.90;;;;;;6200536;23;20202;-78
2023/09/14 08:18:32;;;;;;;10.18;9.88;;;17.30;99.90;;;;;;6200978;23;20218;-77
2023/09/14 08:21:00;;;;;;;10.55;10.25;;;17.40;99.90;;;;;;6202556;23;20243;-79
2023/09/14 08:23:27;;;;;;;10.60;10.30;;;17.50;99.90;;;;;;6202848;23;20274;-78
2023/09/14 08:25:54;;;;;;;10.35;10.05;;;17.40;99.90;;;;;;6204527;23;20301;-79
2023/09/14 08:28:22;;;;;;;10.43;10.13;;;17.50;99.90;;;;;;6203893;23;20199;-79
2023/09/14 08:30:49;;;;;;;10.48;10.18;;;17.60;99.90;;;;;;6196951;23;20215;-77
2023/09/14 08:33:17;;;;;;;10.50;10.20;;;17.70;99.90;;;;;;6197430;23;20286;-77
2023/09/14 08:35:46;;;;;;;10.30;10.00;;;17.80;99.90;;;;;;6201238;23;20231;-79
2023/09/14 08:38:13;;;;;;;10.45;10.15;;;17.80;99.90;;;;;;6206948;23;20215;-79
2023/09/14 08:40:43;;;;;;;10.40;10.10;;;17.90;99.90;;;;;;6208344;23;20208;-79
2023/09/14 08:43:14;;;;;;;10.60;10.30;;;18.00;99.90;;;;;;6210678;23;20192;-77
2023/09/14 08:45:41;;;;;;;10.90;10.60;;;17.90;99.90;;;;;;6217371;23;20195;-78
2023/09/14 08:48:10;;;;;;;10.70;10.40;;;18.00;99.90;;;;;;6215760;23;20199;-78
2023/09/14 08:50:40;;;;;;;10.55;10.25;;;18.10;99.90;;;;;;6216439;23;20188;-78
2023/09/14 08:53:12;;;;;;;10.40;10.10;;;18.30;99.90;;;;;;6214357;23;20210;-79
2023/09/14 08:55:39;;;;;;;10.40;10.10;;;18.50;99.90;;;;;;6214654;23;20176;-79
2023/09/14 08:58:06;;;;;;;10.48;10.18;;;18.70;99.90;;;;;;6214346;23;20210;-78
2023/09/14 09:00:35;;;;;;;10.18;9.88;;;18.70;99.90;;;;;;6214796;23;20223;-78
2023/09/14 09:03:02;;;;;;;10.32;10.02;;;18.60;99.90;;;;;;6216779;23;20199;-78
2023/09/14 09:05:29;;;;;;;10.27;9.98;;;18.70;99.90;;;;;;6216791;23;20215;-78
2023/09/14 09:07:58;;;;;;;10.00;9.70;;;18.90;99.90;;;;;;6215426;23;20227;-79
2023/09/14 09:10:34;;;;;;;10.15;9.85;;;18.80;99.90;;;;;;6215488;23;20204;-79
2023/09/14 09:13:04;;;;;;;10.43;10.13;;;18.80;99.90;;;;;;6214887;23;20227;-78
2023/09/14 09:15:35;;;;;;;10.13;9.82;;;18.80;99.90;;;;;;6215235;23;20238;-78
2023/09/14 09:18:07;;;;;;;10.00;9.70;;;19.00;99.90;;;;;;6215739;23;20580;-79
2023/09/14 09:20:36;;;;;;;9.63;9.32;;;19.20;99.90;;;;;;6210824;23;20260;-78
2023/09/14 09:23:04;;;;;;;10.07;9.77;;;19.30;99.90;;;;;;6204000;23;20262;-79
2023/09/14 09:25:45;;;;;;;10.10;9.80;;;19.40;99.90;;;;;;6204102;23;20200;-79
2023/09/14 09:28:12;;;;;;;10.52;10.23;;;19.50;99.90;;;;;;6203620;23;20206;-79
2023/09/14 09:30:39;;;;;;;10.68;10.38;;;19.50;99.90;;;;;;6202521;23;20243;-79
2023/09/14 09:33:06;;;;;;;10.48;10.18;;;19.40;99.90;;;;;;6202748;23;20219;-79
2023/09/14 09:35:35;;;;;;;10.30;10.00;;;19.40;99.90;;;;;;6203053;23;20270;-79
2023/09/14 09:38:13;;;;;;;10.30;10.00;;;19.50;99.90;;;;;;6204199;23;20198;-79
2023/09/14 09:40:45;;;;;;;10.60;10.30;;;19.50;99.90;;;;;;6203559;23;20194;-78
2023/09/14 09:43:16;;;;;;;10.40;10.10;;;19.70;99.90;;;;;;6203143;23;20263;-78
2023/09/14 09:45:43;;;;;;;10.48;10.18;;;19.50;99.90;;;;;;6202811;23;20211;-79
2023/09/14 09:48:11;;;;;;;10.43;10.13;;;19.60;99.90;;;;;;6204046;23;20203;-79
2023/09/14 09:50:38;;;;;;;10.18;9.88;;;19.70;99.90;;;;;;6203591;23;20227;-79
2023/09/14 09:53:10;;;;;;;10.20;9.90;;;19.70;99.90;;;;;;6201162;23;20230;-77
2023/09/14 09:55:37;;;;;;;10.38;10.07;;;19.80;99.90;;;;;;6196946;23;20187;-77
2023/09/14 09:58:08;;;;;;;10.45;10.15;;;20.00;99.90;;;;;;6195554;23;20219;-79
2023/09/14 10:00:37;;;;;;;10.70;10.40;;;20.10;99.90;;;;;;6196350;23;20195;-78
2023/09/14 10:03:05;;;;;;;10.75;10.45;;;20.20;99.90;;;;;;6196124;23;20212;-78
2023/09/14 10:05:34;;;;;;;10.70;10.40;;;20.20;99.90;;;;;;6196429;23;20196;-80
2023/09/14 10:08:03;;;;;;;10.68;10.38;;;20.30;99.90;;;;;;6196134;23;20200;-77
2023/09/14 10:10:33;;;;;;;10.65;10.35;;;20.40;99.90;;;;;;6197072;23;20223;-77
2023/09/14 10:13:01;;;;;;;10.52;10.23;;;20.20;99.90;;;;;;6197133;23;20242;-77
2023/09/14 10:15:31;;;;;;;10.68;10.38;;;20.00;99.90;;;;;;6200246;23;20287;-76
2023/09/14 10:17:59;;;;;;;10.55;10.25;;;20.00;99.90;;;;;;6198800;23;20264;-77
2023/09/14 10:20:27;;;;;;;10.48;10.18;;;19.80;99.90;;;;;;6197959;23;20195;-78
2023/09/14 10:22:54;;;;;;;10.75;10.45;;;19.80;99.90;;;;;;6195622;23;20212;-77
2023/09/14 10:25:22;;;;;;;10.70;10.40;;;19.90;99.90;;;;;;6195567;23;20210;-77
2023/09/14 10:27:49;;;;;;;10.63;10.32;;;20.00;99.90;;;;;;6195949;23;20203;-77
2023/09/14 10:30:19;;;;;;;10.85;10.55;;;19.90;99.90;;;;;;6195947;23;20294;-78
2023/09/14 10:32:52;;;;;;;10.70;10.40;;;19.80;99.90;;;;;;6201542;23;20270;-77
2023/09/14 10:35:20;;;;;;;10.90;10.60;;;19.80;99.90;;;;;;6202401;23;20247;-78
2023/09/14 10:37:47;;;;;;;10.82;10.52;;;19.90;99.90;;;;;;6200367;23;20196;-77
2023/09/14 10:40:15;;;;;;;10.82;10.52;;;20.10;99.90;;;;;;6201037;23;20195;-79
2023/09/14 10:42:43;;;;;;;10.52;10.23;;;20.30;99.90;;;;;;6201440;23;20195;-80
2023/09/14 10:45:11;;;;;;;10.60;10.30;;;20.40;99.90;;;;;;6201987;23;20211;-78
2023/09/14 10:47:43;;;;;;;10.73;10.43;;;20.40;99.90;;;;;;6201419;23;20263;-78
2023/09/14 10:50:13;;;;;;;10.60;10.30;;;20.50;99.90;;;;;;6201331;23;20251;-78
2023/09/14 10:52:42;;;;;;;10.70;10.40;;;20.20;99.90;;;;;;6200886;23;20267;-80
2023/09/14 10:55:10;;;;;;;10.73;10.43;;;20.20;99.90;;;;;;6202053;23;20209;-78
2023/09/14 10:57:41;;;;;;;10.40;10.10;;;20.50;99.90;;;;;;6201780;23;20211;-78
2023/09/14 11:00:10;;;;;;;10.15;9.85;;;20.50;99.90;;;;;;6202374;23;20201;-78
2023/09/14 11:02:57;;;;;;;10.40;10.10;;;20.60;99.90;;;;;;6200769;23;20211;-78
2023/09/14 11:05:27;;;;;;;10.23;9.93;;;21.00;99.90;;;;;;6201396;23;20215;-78
2023/09/14 11:08:02;;;;;;;10.43;10.13;;;21.30;99.90;;;;;;6202224;23;20206;-78
2023/09/14 11:10:30;;;;;;;10.52;10.23;;;21.60;99.90;;;;;;6201864;23;20179;-78
2023/09/14 11:13:25;;;;;;;10.20;9.90;;;21.60;99.90;;;;;;6201836;23;20221;-78
2023/09/14 11:15:57;;;;;;;10.20;9.90;;;21.70;99.90;;;;;;6201799;23;20202;-78
2023/09/14 11:18:36;;;;;;;10.23;9.93;;;21.90;99.90;;;;;;6201111;23;20188;-78
2023/09/14 11:21:05;;;;;;;10.18;9.88;;;22.30;99.90;;;;;;6200931;23;20188;-78
2023/09/14 11:23:36;;;;;;;10.25;9.95;;;22.70;99.90;;;;;;6201197;23;20202;-78
2023/09/14 11:26:04;;;;;;;10.30;10.00;;;23.00;99.90;;;;;;6198327;23;20191;-77
2023/09/14 11:28:34;;;;;;;10.40;10.10;;;23.20;99.90;;;;;;6194138;23;20234;-77
2023/09/14 11:31:02;;;;;;;10.60;10.30;;;23.50;99.90;;;;;;6198060;23;20196;-78
2023/09/14 11:33:33;;;;;;;10.30;10.00;;;24.00;99.90;;;;;;6198246;23;20211;-79
2023/09/14 11:36:03;;;;;;;10.23;9.93;;;24.50;99.90;;;;;;6202294;23;20278;-78
2023/09/14 11:38:31;;;;;;;11.10;10.80;;;24.80;99.90;;;;;;6203921;23;20227;-79
2023/09/14 11:40:58;;;;;;;10.85;10.55;;;24.90;99.90;;;;;;6202970;23;20195;-79
2023/09/14 11:43:28;;;;;;;10.70;10.40;;;25.10;99.90;;;;;;6203570;23;20222;-79
2023/09/14 11:45:59;;;;;;;10.43;10.13;;;25.40;99.90;;;;;;6202861;23;20235;-79
2023/09/14 11:48:30;;;;;;;10.60;10.30;;;25.50;99.90;;;;;;6202352;23;20198;-79
2023/09/14 11:51:02;;;;;;;10.73;10.43;;;25.30;99.90;;;;;;6202580;23;20200;-79
2023/09/14 11:53:33;;;;;;;10.80;10.50;;;25.20;99.90;;;;;;6205120;23;20204;-78
2023/09/14 11:56:00;;;;;;;10.88;10.57;;;25.10;99.90;;;;;;6205234;23;20211;-78
2023/09/14 11:58:28;;;;;;;10.70;10.40;;;24.90;99.90;;;;;;6202529;23;20198;-78
2023/09/14 12:00:57;;;;;;;10.60;10.30;;;25.30;99.90;;;;;;6202893;23;20219;-79
2023/09/14 12:03:24;;;;;;;10.55;10.25;;;25.70;99.90;;;;;;6203331;23;20223;-77
2023/09/14 12:05:55;;;;;;;10.73;10.43;;;26.00;99.90;;;;;;6203940;23;20230;-78
2023/09/14 12:08:22;;;;;;;10.90;10.60;;;26.30;99.90;;;;;;6203029;23;20223;-78
2023/09/14 12:10:55;;;;;;;10.90;10.60;;;26.30;99.90;;;;;;6201834;23;20338;-78
2023/09/14 12:13:23;;;;;;;10.85;10.55;;;26.50;99.90;;;;;;6202932;23;20679;-78
2023/09/14 12:16:01;;;;;;;11.00;10.70;;;26.70;99.90;;;;;;6203898;23;20273;-79
2023/09/14 12:18:42;;;;;;;10.80;10.50;;;26.90;99.90;;;;;;6204662;23;20184;-78
2023/09/14 12:21:10;;;;;;;10.60;10.30;;;27.10;99.90;;;;;;6204653;23;20211;-79
2023/09/14 12:23:38;;;;;;;10.82;10.52;;;27.40;99.90;;;;;;6204503;23;20259;-79
2023/09/14 12:26:08;;;;;;;10.82;10.52;;;27.80;99.90;;;;;;6204284;23;20200;-79
2023/09/14 12:28:35;;;;;;;10.30;10.00;;;27.90;99.90;;;;;;6203643;23;20536;-79
2023/09/14 12:31:03;;;;;;;10.25;9.95;;;28.00;99.90;;;;;;6194545;23;20210;-77
2023/09/14 12:33:30;;;;;;;10.35;10.05;;;28.00;99.90;;;;;;6197295;23;20267;-77
2023/09/14 12:35:58;;;;;;;10.40;10.10;;;28.00;99.90;;;;;;6198043;23;20282;-77
2023/09/14 12:38:25;;;;;;;10.35;10.05;;;27.90;99.90;;;;;;6198107;23;20202;-77
2023/09/14 12:40:54;;;;;;;10.40;10.10;;;28.00;99.90;;;;;;6197558;23;20294;-78
2023/09/14 12:43:22;;;;;;;10.57;10.27;;;27.90;99.90;;;;;;6199104;23;20264;-78
2023/09/14 12:45:51;;;;;;;10.80;10.50;;;27.80;99.90;;;;;;6198963;23;20234;-78
2023/09/14 12:48:18;;;;;;;10.85;10.55;;;28.00;99.90;;;;;;6197680;23;20204;-78
2023/09/14 12:50:45;;;;;;;10.82;10.52;;;28.20;99.90;;;;;;6198939;23;20238;-78
2023/09/14 12:53:13;;;;;;;11.10;10.80;;;28.30;99.90;;;;;;6197583;23;20214;-79
2023/09/14 12:55:43;;;;;;;10.73;10.43;;;28.20;99.90;;;;;;6198930;23;20256;-77
2023/09/14 12:58:11;;;;;;;10.55;10.25;;;28.10;99.90;;;;;;6198982;23;20196;-77
2023/09/14 13:00:40;;;;;;;10.48;10.18;;;28.10;99.90;;;;;;6198443;23;20212;-78
2023/09/14 13:03:09;;;;;;;10.40;10.10;;;28.20;99.90;;;;;;6198960;23;20223;-78
2023/09/14 13:05:36;;;;;;;10.70;10.40;;;28.30;99.90;;;;;;6198266;23;20199;-78
2023/09/14 13:08:05;;;;;;;10.63;10.32;;;28.30;99.90;;;;;;6200239;23;20248;-78
2023/09/14 13:10:35;;;;;;;10.63;10.32;;;28.50;99.90;;;;;;6203424;23;20196;-79
2023/09/14 13:13:06;;;;;;;10.82;10.52;;;28.50;99.90;;;;;;6203925;23;20287;-79
2023/09/14 13:15:35;;;;;;;10.70;10.40;;;28.80;99.90;;;;;;6200090;23;20184;-78
2023/09/14 13:18:06;;;;;;;10.80;10.50;;;29.10;99.90;;;;;;6198050;23;20230;-78
2023/09/14 13:20:35;;;;;;;10.70;10.40;;;29.10;99.90;;;;;;6198388;23;20319;-79
2023/09/14 13:23:04;;;;;;;10.80;10.50;;;29.20;99.90;;;;;;6202335;23;20200;-78
2023/09/14 13:25:32;;;;;;;11.10;10.80;;;28.90;99.90;;;;;;6201127;23;20235;-77
2023/09/14 13:28:01;;;;;;;10.80;10.50;;;28.90;99.90;;;;;;6200778;23;20247;-78
2023/09/14 13:30:28;;;;;;;11.20;10.90;;;28.60;99.90;;;;;;6204076;23;20195;-80
2023/09/14 13:32:56;;;;;;;11.02;10.73;;;28.80;99.90;;;;;;6203225;23;20208;-79
2023/09/14 13:35:26;;;;;;;11.25;10.95;;;28.80;99.90;;;;;;6199948;23;20210;-77
2023/09/14 13:37:54;;;;;;;11.20;10.90;;;29.10;99.90;;;;;;6198404;23;20219;-77
2023/09/14 13:40:21;;;;;;;11.30;11.00;;;29.30;99.90;;;;;;6198116;23;20192;-77
2023/09/14 13:42:50;;;;;;;11.23;10.93;;;29.50;99.90;;;;;;6197786;23;20235;-82
2023/09/14 13:45:18;;;;;;;11.45;11.15;;;29.70;99.90;;;;;;6193208;23;20203;-80
2023/09/14 13:47:46;;;;;;;11.20;10.90;;;29.40;99.90;;;;;;6192905;23;20211;-80
2023/09/14 13:50:13;;;;;;;10.93;10.63;;;28.80;99.90;;;;;;6193528;23;20207;-80
2023/09/14 13:52:42;;;;;;;11.27;10.98;;;28.40;99.90;;;;;;6193677;23;20234;-79
2023/09/14 13:55:10;;;;;;;11.13;10.82;;;27.80;99.90;;;;;;6193168;23;20230;-79
2023/09/14 13:57:38;;;;;;;11.30;11.00;;;27.70;99.90;;;;;;6192632;23;20208;-79
2023/09/14 14:00:08;;;;;;;11.10;10.80;;;27.90;99.90;;;;;;6192984;23;20207;-80
2023/09/14 14:02:39;;;;;;;11.00;10.70;;;28.20;99.90;;;;;;6192632;23;20214;-79
2023/09/14 14:05:08;;;;;;;11.05;10.75;;;28.50;99.90;;;;;;6193181;23;20215;-79
2023/09/14 14:07:35;;;;;;;11.00;10.70;;;28.60;99.90;;;;;;6193403;23;20191;-80
2023/09/14 14:10:05;;;;;;;10.90;10.60;;;28.70;99.90;;;;;;6193103;23;20199;-80
2023/09/14 14:12:32;;;;;;;11.00;10.70;;;28.90;99.90;;;;;;6192601;23;20267;-80
2023/09/14 14:14:59;;;;;;;10.88;10.57;;;28.70;99.90;;;;;;6193345;23;20255;-80
2023/09/14 14:17:26;;;;;;;11.02;10.73;;;28.50;99.90;;;;;;6193598;23;20255;-79